Time;durP1;ratioP1;P1;durP2;ratioP2;P2;SDS_P1;SDS_P2;PMS_P1;PMS_P2;Temp;Humidity;BMP_temperature;BMP_pressure;BME280_temperature;BME280_humidity;BME280_pressure;Samples;Min_cycle;Max_cycle;Signal;HPM_P1;HPM_P2
2021/10/23 00:00:07;;;;;;;0.25;0.25;;;10.70;99.90;;;;;;5052819;28;20020;-67
2021/10/23 00:02:33;;;;;;;1.95;1.05;;;10.70;99.90;;;;;;5053230;28;20033;-67
2021/10/23 00:04:59;;;;;;;0.00;0.00;;;10.60;99.90;;;;;;5068357;28;20031;-67
2021/10/23 00:07:25;;;;;;;0.00;0.00;;;10.60;99.90;;;;;;5053163;28;20033;-68
2021/10/23 00:09:50;;;;;;;0.10;0.10;;;10.60;99.90;;;;;;5068611;28;20143;-68
2021/10/23 00:12:16;;;;;;;2.30;2.10;;;10.60;99.90;;;;;;5068162;28;20051;-68
2021/10/23 00:14:42;;;;;;;0.10;0.10;;;10.60;99.90;;;;;;5052927;28;20025;-68
2021/10/23 00:17:08;;;;;;;0.00;0.00;;;10.70;99.90;;;;;;5052785;28;20383;-68
2021/10/23 00:19:34;;;;;;;0.00;0.00;;;10.70;99.90;;;;;;5052609;28;20045;-68
2021/10/23 00:22:00;;;;;;;0.47;0.47;;;10.60;99.90;;;;;;5067017;28;20111;-68
2021/10/23 00:24:26;;;;;;;0.00;0.00;;;10.70;99.90;;;;;;5050850;28;20029;-68
2021/10/23 00:26:52;;;;;;;0.00;0.00;;;10.60;99.90;;;;;;5067291;28;20032;-68
2021/10/23 00:29:18;;;;;;;1.70;0.82;;;10.70;99.90;;;;;;5068556;28;20028;-68
2021/10/23 00:31:43;;;;;;;0.00;0.00;;;10.70;99.90;;;;;;5071649;28;20441;-68
2021/10/23 00:34:09;;;;;;;0.00;0.00;;;10.70;99.90;;;;;;5072041;28;20056;-68
2021/10/23 00:36:35;;;;;;;0.08;0.08;;;10.60;99.90;;;;;;5053531;28;20087;-68
2021/10/23 00:39:01;;;;;;;0.08;0.08;;;10.60;99.90;;;;;;5071657;28;20469;-68
2021/10/23 00:41:26;;;;;;;0.00;0.00;;;10.60;99.90;;;;;;5071901;28;20074;-67
2021/10/23 00:43:52;;;;;;;0.00;0.00;;;10.60;99.90;;;;;;5071485;28;20060;-68
2021/10/23 00:46:18;;;;;;;0.00;0.00;;;10.50;99.90;;;;;;5070257;28;20039;-68
2021/10/23 00:48:44;;;;;;;0.20;0.20;;;10.50;99.90;;;;;;5071438;28;20392;-68
2021/10/23 00:51:13;;;;;;;0.25;0.25;;;10.50;99.90;;;;;;5071214;28;20036;-67
2021/10/23 00:53:40;;;;;;;0.08;0.08;;;10.40;99.90;;;;;;5070553;28;20078;-68
2021/10/23 00:56:06;;;;;;;0.00;0.00;;;10.60;99.90;;;;;;5071600;28;20458;-68
2021/10/23 00:58:32;;;;;;;0.00;0.00;;;10.50;99.90;;;;;;5059338;28;20044;-67
2021/10/23 01:00:59;;;;;;;0.03;0.03;;;10.50;99.90;;;;;;5066838;28;20613;-68
2021/10/23 01:03:25;;;;;;;0.30;0.30;;;10.40;99.90;;;;;;5051537;28;20123;-68
2021/10/23 01:05:51;;;;;;;0.10;0.10;;;10.60;99.90;;;;;;5050487;28;20112;-68
2021/10/23 01:08:16;;;;;;;0.03;0.03;;;10.50;99.90;;;;;;5065402;28;20029;-68
2021/10/23 01:10:43;;;;;;;0.00;0.00;;;10.40;99.90;;;;;;5051306;28;20097;-68
2021/10/23 01:13:10;;;;;;;1.15;0.65;;;10.40;99.90;;;;;;5049636;28;20037;-69
2021/10/23 01:15:36;;;;;;;0.10;0.10;;;10.30;99.90;;;;;;5049781;28;20037;-67
2021/10/23 01:18:05;;;;;;;0.10;0.10;;;10.20;99.90;;;;;;5049416;28;20052;-66
2021/10/23 01:20:33;;;;;;;0.00;0.00;;;10.20;99.90;;;;;;5012499;28;1073401;-67
2021/10/23 01:23:00;;;;;;;0.05;0.05;;;10.10;99.90;;;;;;5051808;28;20106;-66
2021/10/23 01:25:29;;;;;;;0.00;0.00;;;10.10;99.90;;;;;;5050845;28;20029;-66
2021/10/23 01:27:59;;;;;;;0.00;0.00;;;9.90;99.90;;;;;;5051890;28;20025;-67
2021/10/23 01:30:26;;;;;;;0.00;0.00;;;9.90;99.90;;;;;;5050854;28;20071;-66
2021/10/23 01:32:53;;;;;;;0.63;0.63;;;9.90;99.90;;;;;;5050826;28;20032;-67
2021/10/23 01:35:25;;;;;;;0.30;0.13;;;9.60;99.90;;;;;;5050610;28;20509;-66
2021/10/23 01:37:52;;;;;;;0.00;0.00;;;9.40;99.90;;;;;;5050593;28;20029;-67
2021/10/23 01:40:28;;;;;;;0.47;0.47;;;9.30;99.90;;;;;;5051986;28;20040;-67
2021/10/23 01:42:55;;;;;;;0.00;0.00;;;9.30;99.90;;;;;;5050553;28;20041;-67
2021/10/23 01:45:21;;;;;;;0.47;0.30;;;9.20;99.90;;;;;;5050716;28;20494;-67
2021/10/23 01:47:47;;;;;;;0.00;0.00;;;9.10;99.90;;;;;;5050725;28;20029;-67
2021/10/23 01:50:20;;;;;;;0.00;0.00;;;9.20;99.90;;;;;;5051850;28;20033;-67
2021/10/23 01:52:47;;;;;;;0.00;0.00;;;9.10;99.90;;;;;;5051403;28;20460;-67
2021/10/23 01:55:15;;;;;;;0.38;0.38;;;9.00;99.90;;;;;;5051806;28;20025;-67
2021/10/23 01:57:41;;;;;;;0.00;0.00;;;9.00;99.90;;;;;;5051727;28;20120;-67
2021/10/23 02:00:11;;;;;;;0.00;0.00;;;8.90;99.90;;;;;;5050570;28;20389;-67
2021/10/23 02:02:38;;;;;;;0.10;0.10;;;9.00;99.90;;;;;;5051484;28;20123;-67
2021/10/23 02:05:04;;;;;;;0.00;0.00;;;9.00;99.90;;;;;;5050465;28;20032;-67
2021/10/23 02:07:30;;;;;;;0.10;0.10;;;8.90;99.90;;;;;;5050352;28;20037;-67
2021/10/23 02:09:56;;;;;;;0.28;0.28;;;8.90;99.90;;;;;;5050286;28;20375;-67
2021/10/23 02:12:22;;;;;;;0.00;0.00;;;8.90;99.90;;;;;;5050230;28;20082;-68
2021/10/23 02:14:47;;;;;;;1.38;1.13;;;8.80;99.90;;;;;;5049323;28;20025;-68
2021/10/23 02:17:13;;;;;;;0.25;0.25;;;8.80;99.90;;;;;;5050127;28;20052;-68
2021/10/23 02:19:39;;;;;;;0.20;0.20;;;8.80;99.90;;;;;;5053337;28;20049;-68
2021/10/23 02:22:05;;;;;;;0.10;0.10;;;8.80;99.90;;;;;;5055006;28;20041;-68
2021/10/23 02:24:31;;;;;;;0.13;0.13;;;8.80;99.90;;;;;;5053671;28;20057;-68
2021/10/23 02:26:56;;;;;;;0.10;0.10;;;8.80;99.90;;;;;;5055002;28;20108;-68
2021/10/23 02:29:22;;;;;;;0.00;0.00;;;8.90;99.90;;;;;;5053479;28;20041;-68
2021/10/23 02:31:48;;;;;;;0.00;0.00;;;8.80;99.90;;;;;;5054720;28;20036;-68
2021/10/23 02:34:14;;;;;;;0.00;0.00;;;8.80;99.90;;;;;;5036808;28;20090;-68
2021/10/23 02:36:40;;;;;;;0.00;0.00;;;8.80;99.90;;;;;;5053752;28;20036;-68
2021/10/23 02:39:06;;;;;;;0.10;0.10;;;8.90;99.90;;;;;;5054630;28;20025;-68
2021/10/23 02:41:31;;;;;;;0.05;0.05;;;8.80;99.90;;;;;;5054878;28;20462;-68
2021/10/23 02:43:59;;;;;;;0.00;0.00;;;8.70;99.90;;;;;;5054419;28;20126;-68
2021/10/23 02:46:25;;;;;;;0.00;0.00;;;8.80;99.90;;;;;;5053501;28;20039;-68
2021/10/23 02:48:50;;;;;;;0.00;0.00;;;8.90;99.90;;;;;;5054433;28;20040;-68
2021/10/23 02:51:16;;;;;;;0.00;0.00;;;8.80;99.90;;;;;;5054269;28;20039;-68
2021/10/23 02:53:42;;;;;;;0.03;0.03;;;8.70;99.90;;;;;;5054639;28;20033;-68
2021/10/23 02:56:08;;;;;;;0.00;0.00;;;8.70;99.90;;;;;;5053160;28;20509;-68
2021/10/23 02:58:34;;;;;;;0.00;0.00;;;8.70;99.90;;;;;;5053026;28;20110;-68
2021/10/23 03:01:00;;;;;;;0.35;0.35;;;8.70;99.90;;;;;;5054533;28;20083;-67
2021/10/23 03:03:26;;;;;;;0.10;0.10;;;8.80;99.90;;;;;;5069691;28;20045;-67
2021/10/23 03:05:51;;;;;;;0.15;0.15;;;8.80;99.90;;;;;;5053227;28;20151;-67
2021/10/23 03:08:17;;;;;;;1.45;0.82;;;8.70;99.90;;;;;;5054255;28;20083;-67
2021/10/23 03:10:43;;;;;;;0.28;0.28;;;8.70;99.90;;;;;;5054108;28;20033;-67
2021/10/23 03:13:10;;;;;;;0.10;0.10;;;8.60;99.90;;;;;;5053801;28;20040;-67
2021/10/23 03:15:36;;;;;;;0.00;0.00;;;8.60;99.90;;;;;;5054210;28;20513;-67
2021/10/23 03:18:02;;;;;;;0.00;0.00;;;8.60;99.90;;;;;;5053848;28;20076;-67
2021/10/23 03:20:28;;;;;;;0.15;0.15;;;8.40;99.90;;;;;;5053563;28;20489;-67
2021/10/23 03:22:54;;;;;;;0.00;0.00;;;8.30;99.90;;;;;;5053868;28;20029;-68
2021/10/23 03:25:19;;;;;;;0.00;0.00;;;8.20;99.90;;;;;;5052580;28;20079;-68
2021/10/23 03:27:45;;;;;;;0.00;0.00;;;8.10;99.90;;;;;;5053828;28;20037;-67
2021/10/23 03:30:11;;;;;;;0.08;0.08;;;8.00;99.90;;;;;;5067986;28;20017;-68
2021/10/23 03:32:37;;;;;;;0.00;0.00;;;7.90;99.90;;;;;;5052353;28;20040;-67
2021/10/23 03:35:07;;;;;;;0.00;0.00;;;7.90;99.90;;;;;;5052304;28;20025;-67
2021/10/23 03:37:35;;;;;;;0.00;0.00;;;7.80;99.90;;;;;;5052295;28;20029;-67
2021/10/23 03:40:05;;;;;;;3.53;1.27;;;7.80;99.90;;;;;;5052500;28;20526;-67
2021/10/23 03:42:31;;;;;;;0.05;0.05;;;7.70;99.90;;;;;;5053483;28;20020;-67
2021/10/23 03:44:57;;;;;;;0.20;0.20;;;7.70;99.90;;;;;;5052231;28;20043;-67
2021/10/23 03:47:23;;;;;;;0.63;0.63;;;7.70;99.90;;;;;;5053454;28;20033;-67
2021/10/23 03:49:48;;;;;;;0.10;0.10;;;7.70;99.90;;;;;;5053121;28;20033;-67
2021/10/23 03:52:15;;;;;;;0.10;0.10;;;7.70;99.90;;;;;;5053149;28;20032;-67
2021/10/23 03:54:41;;;;;;;0.20;0.20;;;7.60;99.90;;;;;;5052084;28;20051;-67
2021/10/23 03:57:07;;;;;;;0.00;0.00;;;7.60;99.90;;;;;;5052211;28;20128;-67
2021/10/23 03:59:33;;;;;;;0.10;0.10;;;7.50;99.90;;;;;;5035239;28;20440;-67
2021/10/23 04:01:59;;;;;;;0.20;0.20;;;7.50;99.90;;;;;;5052988;28;20037;-67
2021/10/23 04:04:25;;;;;;;0.10;0.10;;;7.50;99.90;;;;;;5051951;28;20029;-67
2021/10/23 04:06:51;;;;;;;0.00;0.00;;;7.40;99.90;;;;;;5052130;28;20037;-67
2021/10/23 04:09:17;;;;;;;0.17;0.17;;;7.30;99.90;;;;;;5052712;28;20039;-67
2021/10/23 04:11:43;;;;;;;3.08;1.63;;;7.30;99.90;;;;;;5053147;28;20078;-67
2021/10/23 04:14:09;;;;;;;0.00;0.00;;;7.30;99.90;;;;;;5051832;28;20024;-67
2021/10/23 04:16:35;;;;;;;1.85;1.55;;;7.30;99.90;;;;;;5053021;28;20573;-67
2021/10/23 04:19:01;;;;;;;0.00;0.00;;;7.20;99.90;;;;;;5052712;28;20037;-67
2021/10/23 04:21:27;;;;;;;0.10;0.10;;;7.20;99.90;;;;;;5052425;28;20072;-67
2021/10/23 04:23:52;;;;;;;0.00;0.00;;;7.20;99.90;;;;;;5052758;28;20402;-67
2021/10/23 04:26:19;;;;;;;0.03;0.03;;;7.20;99.90;;;;;;5052807;28;20040;-67
2021/10/23 04:28:45;;;;;;;0.10;0.10;;;7.10;99.90;;;;;;5051436;28;20048;-67
2021/10/23 04:31:11;;;;;;;0.00;0.00;;;7.10;99.90;;;;;;5051270;28;20064;-67
2021/10/23 04:33:37;;;;;;;0.10;0.10;;;7.00;99.90;;;;;;5051647;28;20474;-66
2021/10/23 04:36:03;;;;;;;0.20;0.20;;;7.00;99.90;;;;;;5052665;28;20036;-66
2021/10/23 04:38:28;;;;;;;4.68;2.35;;;7.00;99.90;;;;;;5052258;28;20071;-66
2021/10/23 04:40:54;;;;;;;0.40;0.38;;;7.10;99.90;;;;;;5052408;28;20633;-66
2021/10/23 04:43:20;;;;;;;0.30;0.30;;;7.10;99.90;;;;;;5051467;28;20368;-67
2021/10/23 04:45:46;;;;;;;1.02;0.98;;;7.30;99.90;;;;;;5068064;28;20032;-66
2021/10/23 04:48:12;;;;;;;0.10;0.10;;;7.40;99.90;;;;;;5051172;28;20033;-66
2021/10/23 04:50:38;;;;;;;2.60;1.40;;;7.40;99.90;;;;;;5051233;28;20033;-66
2021/10/23 04:53:03;;;;;;;0.30;0.30;;;7.30;99.90;;;;;;5051367;28;20025;-67
2021/10/23 04:55:30;;;;;;;0.70;0.70;;;7.20;99.90;;;;;;5050860;28;20033;-67
2021/10/23 04:57:57;;;;;;;0.05;0.05;;;7.10;99.90;;;;;;5052202;28;20045;-67
2021/10/23 05:00:24;;;;;;;1.30;0.80;;;7.10;99.90;;;;;;5051946;28;20025;-67
2021/10/23 05:02:50;;;;;;;0.00;0.00;;;7.10;99.90;;;;;;5051328;28;20404;-67
2021/10/23 05:05:16;;;;;;;0.40;0.40;;;7.00;99.90;;;;;;5050662;28;20123;-67
2021/10/23 05:07:42;;;;;;;0.43;0.43;;;7.00;99.90;;;;;;5052450;28;20033;-67
2021/10/23 05:10:08;;;;;;;0.55;0.55;;;7.00;99.90;;;;;;5052155;28;20035;-67
2021/10/23 05:12:34;;;;;;;1.23;1.13;;;7.00;99.90;;;;;;5052224;28;20115;-67
2021/10/23 05:15:00;;;;;;;0.00;0.00;;;7.00;99.90;;;;;;5052374;28;20124;-67
2021/10/23 05:17:26;;;;;;;0.10;0.10;;;7.00;99.90;;;;;;5051757;28;20436;-67
2021/10/23 05:19:52;;;;;;;0.00;0.00;;;6.90;99.90;;;;;;5051739;28;20044;-67
2021/10/23 05:22:18;;;;;;;0.00;0.00;;;6.80;99.90;;;;;;5051818;28;20033;-67
2021/10/23 05:24:43;;;;;;;0.52;0.52;;;6.90;99.90;;;;;;5050777;28;20033;-67
2021/10/23 05:27:09;;;;;;;2.00;1.90;;;6.90;99.90;;;;;;5052147;28;20029;-67
2021/10/23 05:29:35;;;;;;;1.48;1.38;;;6.80;99.90;;;;;;5051679;28;20178;-67
2021/10/23 05:32:00;;;;;;;0.45;0.28;;;6.80;99.90;;;;;;5050567;28;20029;-67
2021/10/23 05:34:26;;;;;;;0.08;0.08;;;6.80;99.90;;;;;;5051974;28;20044;-67
2021/10/23 05:36:53;;;;;;;0.30;0.30;;;6.80;99.90;;;;;;5050510;28;20025;-67
2021/10/23 05:39:19;;;;;;;0.45;0.45;;;6.80;99.90;;;;;;5051851;28;20041;-67
2021/10/23 05:41:45;;;;;;;0.00;0.00;;;6.80;99.90;;;;;;5052011;28;20473;-67
2021/10/23 05:44:11;;;;;;;0.28;0.28;;;6.70;99.90;;;;;;5050846;28;20075;-66
2021/10/23 05:46:36;;;;;;;0.10;0.10;;;6.70;99.90;;;;;;5051473;28;20039;-66
2021/10/23 05:49:02;;;;;;;0.25;0.25;;;6.80;99.90;;;;;;5051798;28;20095;-65
2021/10/23 05:51:28;;;;;;;2.40;1.35;;;6.70;99.90;;;;;;5051429;28;20029;-66
2021/10/23 05:53:54;;;;;;;0.60;0.60;;;6.70;99.90;;;;;;5054664;28;20041;-66
2021/10/23 05:56:21;;;;;;;0.40;0.40;;;6.70;99.90;;;;;;5053757;28;20033;-65
2021/10/23 05:58:47;;;;;;;0.00;0.00;;;6.70;99.90;;;;;;5054086;28;20033;-66
2021/10/23 06:01:12;;;;;;;0.40;0.40;;;6.60;99.90;;;;;;5070641;28;20079;-66
2021/10/23 06:03:39;;;;;;;0.00;0.00;;;6.60;99.90;;;;;;5055223;28;20077;-66
2021/10/23 06:06:07;;;;;;;0.10;0.10;;;6.60;99.90;;;;;;5055439;28;20036;-66
2021/10/23 06:08:35;;;;;;;1.95;1.83;;;6.60;99.90;;;;;;5054259;28;20033;-66
2021/10/23 06:11:01;;;;;;;5.63;0.88;;;6.60;99.90;;;;;;5055167;28;20115;-66
2021/10/23 06:13:27;;;;;;;0.05;0.05;;;6.50;99.90;;;;;;5053749;28;20128;-66
2021/10/23 06:15:53;;;;;;;0.00;0.00;;;6.50;99.90;;;;;;5070486;28;20120;-67
2021/10/23 06:18:19;;;;;;;2.55;1.20;;;6.60;99.90;;;;;;5054761;28;20068;-70
2021/10/23 06:20:46;;;;;;;0.45;0.35;;;6.60;99.90;;;;;;5054722;28;20588;-68
2021/10/23 06:23:12;;;;;;;0.30;0.30;;;6.50;99.90;;;;;;5070318;28;20501;-68
2021/10/23 06:25:38;;;;;;;0.73;0.38;;;6.60;99.90;;;;;;5070498;28;20040;-69
2021/10/23 06:28:04;;;;;;;2.15;1.67;;;6.60;99.90;;;;;;5055059;28;20029;-69
2021/10/23 06:30:31;;;;;;;0.80;0.80;;;6.60;99.90;;;;;;5070554;28;20033;-69
2021/10/23 06:32:57;;;;;;;0.28;0.28;;;6.60;99.90;;;;;;5054659;28;20151;-68
2021/10/23 06:35:24;;;;;;;0.03;0.03;;;6.60;99.90;;;;;;5054123;28;20032;-68
2021/10/23 06:37:51;;;;;;;2.10;1.92;;;6.60;99.90;;;;;;5054436;28;20112;-66
2021/10/23 06:40:18;;;;;;;0.55;0.55;;;6.60;99.90;;;;;;5054885;28;20025;-67
2021/10/23 06:42:44;;;;;;;1.02;0.95;;;6.60;99.90;;;;;;5054375;28;20078;-69
2021/10/23 06:45:12;;;;;;;0.22;0.22;;;6.60;99.90;;;;;;5070454;28;20103;-75
2021/10/23 06:47:39;;;;;;;2.55;2.05;;;6.70;99.90;;;;;;5070022;28;20086;-68
2021/10/23 06:50:08;;;;;;;0.10;0.10;;;6.70;99.90;;;;;;5054742;28;20036;-66
2021/10/23 06:52:34;;;;;;;1.45;1.35;;;6.80;99.90;;;;;;5054374;28;20445;-76
2021/10/23 06:55:00;;;;;;;0.00;0.00;;;6.90;99.90;;;;;;5054663;28;20114;-81
2021/10/23 06:57:26;;;;;;;0.45;0.45;;;6.90;99.90;;;;;;5069533;28;20033;-73
2021/10/23 06:59:52;;;;;;;1.98;1.23;;;7.10;99.90;;;;;;5054190;28;20385;-70
2021/10/23 07:02:18;;;;;;;0.10;0.10;;;7.20;99.90;;;;;;5054469;28;20476;-70
2021/10/23 07:04:44;;;;;;;0.13;0.13;;;7.20;99.90;;;;;;5069341;28;20123;-71
2021/10/23 07:07:09;;;;;;;0.10;0.10;;;7.30;99.90;;;;;;5069453;28;20028;-72
2021/10/23 07:09:35;;;;;;;0.73;0.73;;;7.40;99.90;;;;;;5054002;28;20061;-68
2021/10/23 07:12:02;;;;;;;0.10;0.10;;;7.50;99.90;;;;;;5069754;28;20090;-71
2021/10/23 07:14:27;;;;;;;0.00;0.00;;;7.60;99.90;;;;;;5069337;28;20033;-69
2021/10/23 07:16:53;;;;;;;1.70;1.55;;;7.60;99.90;;;;;;5053915;28;20116;-72
2021/10/23 07:19:19;;;;;;;0.68;0.68;;;7.70;99.90;;;;;;5069548;28;20436;-79
2021/10/23 07:21:45;;;;;;;0.10;0.10;;;7.70;99.90;;;;;;5053832;28;20551;-71
2021/10/23 07:24:10;;;;;;;0.10;0.10;;;7.80;99.90;;;;;;5069273;28;20525;-75
2021/10/23 07:26:37;;;;;;;2.95;2.03;;;7.80;99.90;;;;;;5068930;28;20036;-71
2021/10/23 07:29:05;;;;;;;1.45;1.35;;;7.90;99.90;;;;;;5052017;28;20033;-68
2021/10/23 07:31:31;;;;;;;1.55;1.30;;;7.90;99.90;;;;;;5053859;28;20048;-74
2021/10/23 07:33:57;;;;;;;0.30;0.30;;;8.00;99.90;;;;;;5053649;28;20025;-70
2021/10/23 07:36:23;;;;;;;0.00;0.00;;;8.30;99.90;;;;;;5052410;28;20083;-70
2021/10/23 07:38:50;;;;;;;0.55;0.55;;;8.40;99.90;;;;;;5068764;28;20037;-69
2021/10/23 07:41:17;;;;;;;0.80;0.73;;;8.50;99.90;;;;;;5068835;28;20033;-69
2021/10/23 07:43:43;;;;;;;0.00;0.00;;;8.60;99.90;;;;;;5068662;28;20033;-73
2021/10/23 07:46:08;;;;;;;0.20;0.20;;;8.80;99.90;;;;;;5053819;28;20059;-70
2021/10/23 07:48:36;;;;;;;0.10;0.10;;;8.80;99.90;;;;;;5068776;28;20115;-70
2021/10/23 07:51:06;;;;;;;2.40;0.70;;;8.70;99.90;;;;;;5052018;28;20021;-71
2021/10/23 07:53:32;;;;;;;0.40;0.40;;;8.70;99.90;;;;;;5053082;28;20477;-71
2021/10/23 07:55:59;;;;;;;0.50;0.50;;;8.70;99.90;;;;;;5068933;28;20106;-71
2021/10/23 07:58:25;;;;;;;0.93;0.80;;;8.80;99.90;;;;;;5053121;28;20536;-71
2021/10/23 08:00:52;;;;;;;0.15;0.15;;;9.00;99.90;;;;;;5068861;28;20033;-71
2021/10/23 08:03:17;;;;;;;0.00;0.00;;;8.80;99.90;;;;;;5068641;28;20032;-71
2021/10/23 08:05:43;;;;;;;0.20;0.20;;;8.70;99.90;;;;;;5053188;28;20051;-71
2021/10/23 08:08:09;;;;;;;0.40;0.40;;;8.90;99.90;;;;;;5053219;28;20056;-71
2021/10/23 08:10:36;;;;;;;0.47;0.47;;;9.00;99.90;;;;;;5052798;28;20393;-71
2021/10/23 08:13:04;;;;;;;1.95;1.17;;;9.10;99.90;;;;;;5053157;28;20035;-71
2021/10/23 08:15:31;;;;;;;0.00;0.00;;;9.10;99.90;;;;;;5067226;28;20363;-71
2021/10/23 08:17:58;;;;;;;0.10;0.10;;;9.30;99.90;;;;;;5052666;28;20100;-71
2021/10/23 08:20:32;;;;;;;0.10;0.10;;;9.10;99.90;;;;;;5068052;28;20044;-71
2021/10/23 08:22:59;;;;;;;0.77;0.57;;;9.10;99.90;;;;;;5051287;28;20029;-70
2021/10/23 08:25:25;;;;;;;1.75;0.77;;;9.10;99.90;;;;;;5068242;28;20029;-71
2021/10/23 08:27:51;;;;;;;0.43;0.43;;;9.20;99.90;;;;;;5052481;28;20040;-71
2021/10/23 08:30:19;;;;;;;0.25;0.25;;;9.30;99.90;;;;;;5052599;28;20061;-71
2021/10/23 08:32:46;;;;;;;0.00;0.00;;;9.40;99.90;;;;;;5052315;28;20508;-70
2021/10/23 08:35:17;;;;;;;0.10;0.10;;;9.30;99.90;;;;;;5052600;28;20470;-65
2021/10/23 08:37:45;;;;;;;0.22;0.22;;;9.40;99.90;;;;;;5067708;28;20493;-66
2021/10/23 08:40:13;;;;;;;2.10;1.38;;;9.50;99.90;;;;;;5051182;28;20029;-69
2021/10/23 08:42:39;;;;;;;0.10;0.10;;;9.60;99.90;;;;;;5052428;28;20037;-67
2021/10/23 08:45:09;;;;;;;0.45;0.45;;;9.80;99.90;;;;;;5051395;28;20075;-67
2021/10/23 08:47:37;;;;;;;0.40;0.40;;;10.00;99.90;;;;;;5051021;28;20558;-67
2021/10/23 08:50:06;;;;;;;2.05;1.88;;;10.10;99.90;;;;;;5052167;28;20037;-67
2021/10/23 08:52:32;;;;;;;1.42;0.55;;;10.20;99.90;;;;;;5051110;28;20116;-67
2021/10/23 08:54:58;;;;;;;0.00;0.00;;;10.10;99.90;;;;;;5067494;28;20029;-69
2021/10/23 08:57:26;;;;;;;1.13;1.02;;;10.30;99.90;;;;;;5052339;28;20036;-67
2021/10/23 08:59:52;;;;;;;0.75;0.75;;;10.30;99.90;;;;;;5052183;28;20040;-67
2021/10/23 09:02:21;;;;;;;0.65;0.65;;;10.60;99.90;;;;;;5067811;28;20478;-66
2021/10/23 09:04:49;;;;;;;0.00;0.00;;;10.70;99.90;;;;;;5051985;28;20090;-66
2021/10/23 09:07:16;;;;;;;0.35;0.35;;;10.60;99.90;;;;;;5052338;28;20029;-67
2021/10/23 09:09:53;;;;;;;0.43;0.30;;;10.60;99.90;;;;;;5051834;28;20037;-68
2021/10/23 09:12:27;;;;;;;0.00;0.00;;;10.90;99.90;;;;;;5067445;28;20044;-67
2021/10/23 09:15:16;;;;;;;0.00;0.00;;;11.20;99.90;;;;;;5067048;28;20036;-64
2021/10/23 09:17:52;;;;;;;0.20;0.20;;;10.90;99.90;;;;;;5052086;28;20032;-66
2021/10/23 09:20:22;;;;;;;0.10;0.10;;;11.10;99.90;;;;;;5057703;28;20513;-67
2021/10/23 09:22:53;;;;;;;1.08;0.85;;;11.20;99.90;;;;;;5055279;28;20159;-75
2021/10/23 09:25:27;;;;;;;0.00;0.00;;;11.30;99.90;;;;;;5031971;28;20239;-69
2021/10/23 09:28:13;;;;;;;0.00;0.00;;;11.50;99.90;;;;;;5033157;28;20040;-69
2021/10/23 09:30:49;;;;;;;0.00;0.00;;;11.30;99.90;;;;;;5067578;28;20225;-69
2021/10/23 09:33:21;;;;;;;1.65;0.32;;;11.40;99.90;;;;;;5056436;28;20039;-70
2021/10/23 09:35:59;;;;;;;0.75;0.75;;;11.60;99.90;;;;;;5070690;28;20029;-69
2021/10/23 09:38:32;;;;;;;8.48;1.55;;;11.70;99.90;;;;;;5071014;28;20033;-68
2021/10/23 09:41:25;;;;;;;0.40;0.40;;;11.90;99.90;;;;;;5070424;28;20025;-67
2021/10/23 09:44:17;;;;;;;0.10;0.10;;;12.20;99.90;;;;;;5055399;28;20134;-69
2021/10/23 09:46:53;;;;;;;0.90;0.50;;;12.30;99.90;;;;;;5071145;28;20033;-70
2021/10/23 09:49:23;;;;;;;0.45;0.45;;;12.30;99.90;;;;;;5056484;28;20036;-69
2021/10/23 09:52:08;;;;;;;0.57;0.43;;;12.40;99.90;;;;;;5074172;28;20512;-68
2021/10/23 09:54:37;;;;;;;0.00;0.00;;;12.40;99.90;;;;;;5075239;28;20377;-63
2021/10/23 09:57:12;;;;;;;0.00;0.00;;;12.40;99.90;;;;;;5075642;28;20029;-65
2021/10/23 09:59:38;;;;;;;0.03;0.03;;;12.30;99.90;;;;;;5064162;28;20045;-64
2021/10/23 10:02:08;;;;;;;0.00;0.00;;;12.80;99.90;;;;;;5055031;28;20021;-66
2021/10/23 10:04:37;;;;;;;0.03;0.03;;;12.30;99.90;;;;;;5055254;28;20021;-64
2021/10/23 10:07:04;;;;;;;0.03;0.03;;;12.00;99.90;;;;;;5070926;28;20029;-64
2021/10/23 10:09:30;;;;;;;0.55;0.55;;;12.00;99.90;;;;;;5070553;28;20040;-64
2021/10/23 10:11:57;;;;;;;0.00;0.00;;;12.10;99.90;;;;;;5054997;28;20029;-64
2021/10/23 10:14:34;;;;;;;0.00;0.00;;;12.20;99.90;;;;;;5055243;28;20392;-64
2021/10/23 10:17:02;;;;;;;0.13;0.13;;;12.60;99.90;;;;;;5070619;28;20381;-64
2021/10/23 10:19:28;;;;;;;0.30;0.30;;;12.50;99.90;;;;;;5056680;28;20076;-65
2021/10/23 10:21:55;;;;;;;0.00;0.00;;;12.40;99.90;;;;;;5074851;28;20045;-65
2021/10/23 10:24:32;;;;;;;0.15;0.10;;;12.80;99.90;;;;;;5075162;28;20029;-65
2021/10/23 10:27:11;;;;;;;0.70;0.63;;;12.90;99.90;;;;;;5057371;28;20029;-65
2021/10/23 10:32:33;;;;;;;0.20;0.20;;;13.30;99.90;;;;;;5073796;28;20538;-65
2021/10/23 10:43:19;;;;;;;0.05;0.03;;;12.90;99.90;;;;;;5073663;28;20036;-65
2021/10/23 10:45:47;;;;;;;0.52;0.52;;;13.20;99.90;;;;;;5056354;28;20028;-65
2021/10/23 10:48:17;;;;;;;0.00;0.00;;;13.00;99.90;;;;;;5074617;28;20036;-65
2021/10/23 10:50:59;;;;;;;1.75;1.45;;;13.60;99.90;;;;;;5061915;28;20056;-65
2021/10/23 10:53:48;;;;;;;1.35;0.75;;;14.00;99.90;;;;;;5054374;28;20040;-64
2021/10/23 10:56:17;;;;;;;1.55;1.45;;;14.40;99.90;;;;;;5054215;28;20121;-64
2021/10/23 10:58:55;;;;;;;0.43;0.30;;;14.00;99.90;;;;;;5069604;28;20494;-65
2021/10/23 11:01:29;;;;;;;0.00;0.00;;;13.70;99.90;;;;;;5054361;28;20522;-65
2021/10/23 11:04:11;;;;;;;0.00;0.00;;;13.80;99.90;;;;;;5054355;28;20043;-71
2021/10/23 11:06:45;;;;;;;0.30;0.17;;;13.50;99.90;;;;;;5069517;28;20082;-67
2021/10/23 11:09:16;;;;;;;0.55;0.55;;;13.70;99.90;;;;;;5052860;28;20041;-70
2021/10/23 11:11:45;;;;;;;0.57;0.57;;;13.90;99.90;;;;;;5052755;28;20041;-70
2021/10/23 11:17:10;;;;;;;0.13;0.13;;;14.30;99.90;;;;;;5053685;28;20051;-71
2021/10/23 11:19:54;;;;;;;0.00;0.00;;;14.10;99.90;;;;;;5053355;28;20488;-68
2021/10/23 11:22:32;;;;;;;3.92;1.35;;;14.50;99.90;;;;;;5053772;28;20382;-68
2021/10/23 11:25:11;;;;;;;0.00;0.00;;;14.20;99.90;;;;;;5053001;28;20036;-69
2021/10/23 11:27:50;;;;;;;0.20;0.20;;;13.70;99.90;;;;;;5052140;28;20082;-66
2021/10/23 11:30:30;;;;;;;0.20;0.20;;;14.30;99.90;;;;;;5053882;28;20032;-66
2021/10/23 11:33:05;;;;;;;1.95;1.08;;;13.80;99.90;;;;;;5052379;28;20029;-69
2021/10/23 11:35:37;;;;;;;0.35;0.35;;;14.10;99.90;;;;;;5052166;28;20035;-68
2021/10/23 11:38:20;;;;;;;0.10;0.10;;;14.40;99.90;;;;;;5052951;28;20040;-63
2021/10/23 11:41:00;;;;;;;0.03;0.03;;;14.30;99.90;;;;;;5053686;28;20220;-63
2021/10/23 11:43:38;;;;;;;0.10;0.10;;;14.30;99.90;;;;;;5037057;28;20033;-64
2021/10/23 11:46:06;;;;;;;0.25;0.15;;;14.20;99.90;;;;;;5037190;28;20048;-65
2021/10/23 11:48:33;;;;;;;0.73;0.73;;;13.60;99.90;;;;;;5053555;28;20033;-72
2021/10/23 11:50:58;;;;;;;0.00;0.00;;;13.70;99.90;;;;;;5051215;28;20619;-71
2021/10/23 11:53:30;;;;;;;0.00;0.00;;;13.60;99.90;;;;;;5053589;28;20151;-71
2021/10/23 11:56:01;;;;;;;0.00;0.00;;;13.60;99.90;;;;;;5051870;28;20025;-71
2021/10/23 11:58:33;;;;;;;0.00;0.00;;;13.20;99.90;;;;;;5053216;28;20559;-68
2021/10/23 12:01:09;;;;;;;0.00;0.00;;;13.00;99.90;;;;;;5053215;28;20099;-68
2021/10/23 12:03:46;;;;;;;0.20;0.20;;;12.90;99.90;;;;;;5053053;28;20060;-66
2021/10/23 12:06:23;;;;;;;0.10;0.10;;;13.20;99.90;;;;;;5053224;28;20052;-66
2021/10/23 12:09:24;;;;;;;0.00;0.00;;;13.10;99.90;;;;;;5051889;28;20622;-67
2021/10/23 12:12:07;;;;;;;0.00;0.00;;;13.20;99.90;;;;;;5052906;28;20146;-69
2021/10/23 12:14:34;;;;;;;0.52;0.52;;;13.30;99.90;;;;;;5053067;28;20037;-67
2021/10/23 12:17:00;;;;;;;0.20;0.05;;;13.40;99.90;;;;;;5052695;28;20029;-66
2021/10/23 12:19:41;;;;;;;0.00;0.00;;;13.50;99.90;;;;;;5051320;28;20583;-70
2021/10/23 12:22:16;;;;;;;0.28;0.28;;;13.50;99.90;;;;;;5051491;28;20037;-61
2021/10/23 12:24:47;;;;;;;0.17;0.17;;;13.80;99.90;;;;;;5053049;28;20087;-62
2021/10/23 12:27:31;;;;;;;0.75;0.63;;;13.60;99.90;;;;;;5051402;28;20036;-60
2021/10/23 12:30:00;;;;;;;0.52;0.52;;;13.80;99.90;;;;;;5051396;28;20120;-64
2021/10/23 12:32:25;;;;;;;0.30;0.30;;;13.90;99.90;;;;;;5052770;28;20367;-69
2021/10/23 12:34:51;;;;;;;0.08;0.08;;;13.70;99.90;;;;;;5052118;28;20029;-73
2021/10/23 12:37:26;;;;;;;0.00;0.00;;;14.10;99.90;;;;;;5067633;28;20033;-74
2021/10/23 12:40:19;;;;;;;0.00;0.00;;;14.20;99.90;;;;;;5052350;28;20044;-71
2021/10/23 12:42:50;;;;;;;0.30;0.30;;;13.90;99.90;;;;;;5052496;28;20028;-72
2021/10/23 12:45:23;;;;;;;0.15;0.15;;;13.90;99.90;;;;;;5035907;28;20029;-71
2021/10/23 12:47:50;;;;;;;0.00;0.00;;;14.10;99.90;;;;;;5032509;28;20040;-73
2021/10/23 12:50:22;;;;;;;0.55;0.47;;;13.90;99.90;;;;;;5031038;28;20071;-72
2021/10/23 12:52:49;;;;;;;0.55;0.52;;;13.30;99.90;;;;;;5032065;28;20025;-73
2021/10/23 12:55:16;;;;;;;4.30;0.98;;;13.40;99.90;;;;;;5032541;28;20040;-73
2021/10/23 12:57:42;;;;;;;0.00;0.00;;;13.70;99.90;;;;;;5031987;28;20037;-72
2021/10/23 13:00:11;;;;;;;0.00;0.00;;;13.80;99.90;;;;;;5032102;28;20044;-76
2021/10/23 13:02:37;;;;;;;0.30;0.30;;;14.00;99.90;;;;;;5032259;28;20022;-77
2021/10/23 13:05:04;;;;;;;0.00;0.00;;;13.80;99.90;;;;;;5031866;28;20679;-73
2021/10/23 13:07:30;;;;;;;0.10;0.10;;;13.90;99.90;;;;;;5047298;28;20037;-66
2021/10/23 13:09:58;;;;;;;0.00;0.00;;;14.00;99.80;;;;;;5032049;28;20026;-72
2021/10/23 13:12:24;;;;;;;0.00;0.00;;;13.90;99.90;;;;;;5047237;28;20120;-64